Time;durP1;ratioP1;P1;durP2;ratioP2;P2;SDS_P1;SDS_P2;PMS_P1;PMS_P2;Temp;Humidity;BMP_temperature;BMP_pressure;BME280_temperature;BME280_humidity;BME280_pressure;Samples;Min_cycle;Max_cycle;Signal;HPM_P1;HPM_P2
2021/07/01 00:00:56;;;;;;;5.50;2.50;;;;;;;;;;5093888;28;20239;-84
2021/07/01 00:03:23;;;;;;;2.13;2.03;;;;;;;;;;5093660;28;20230;-84
2021/07/01 00:05:50;;;;;;;2.77;2.57;;;;;;;;;;5094366;28;20210;-84
2021/07/01 00:08:16;;;;;;;2.87;2.40;;;;;;;;;;5093445;28;20224;-84
2021/07/01 00:10:44;;;;;;;2.00;2.00;;;;;;;;;;5093672;28;20223;-84
2021/07/01 00:13:11;;;;;;;2.60;2.40;;;;;;;;;;5093436;28;20818;-84
2021/07/01 00:15:38;;;;;;;4.17;2.20;;;;;;;;;;5093137;28;20693;-84
2021/07/01 00:18:07;;;;;;;2.80;2.60;;;;;;;;;;5092992;28;20193;-84
2021/07/01 00:20:33;;;;;;;2.97;2.20;;;;;;;;;;5094457;28;20214;-84
2021/07/01 00:23:00;;;;;;;2.40;2.30;;;;;;;;;;5093246;28;20220;-84
2021/07/01 00:25:27;;;;;;;4.43;2.53;;;;;;;;;;5093169;28;20198;-83
2021/07/01 00:27:55;;;;;;;3.33;2.80;;;;;;;;;;5094416;28;20206;-84
2021/07/01 00:30:22;;;;;;;2.70;2.50;;;;;;;;;;5094494;28;20746;-84
2021/07/01 00:32:49;;;;;;;2.60;2.40;;;;;;;;;;5092819;28;20247;-84
2021/07/01 00:35:16;;;;;;;3.10;2.90;;;;;;;;;;5092933;28;20247;-84
2021/07/01 00:37:43;;;;;;;2.50;2.40;;;;;;;;;;5093035;28;20193;-84
2021/07/01 00:40:11;;;;;;;4.67;2.63;;;;;;;;;;5093044;28;20189;-84
2021/07/01 00:42:38;;;;;;;2.63;2.40;;;;;;;;;;5094140;28;20178;-84
2021/07/01 00:45:07;;;;;;;2.40;2.30;;;;;;;;;;5092993;28;20259;-84
2021/07/01 00:47:34;;;;;;;2.30;2.10;;;;;;;;;;5092933;28;20605;-85
2021/07/01 00:50:03;;;;;;;4.77;2.53;;;;;;;;;;5092840;28;20983;-85
2021/07/01 00:52:29;;;;;;;3.30;3.00;;;;;;;;;;5092666;28;20202;-84
2021/07/01 00:54:57;;;;;;;4.57;2.40;;;;;;;;;;5092893;28;20186;-85
2021/07/01 00:57:24;;;;;;;3.70;2.70;;;;;;;;;;5093894;28;20237;-85
2021/07/01 00:59:51;;;;;;;3.70;2.60;;;;;;;;;;5092637;28;20255;-85
2021/07/01 01:02:19;;;;;;;2.93;2.67;;;;;;;;;;5092324;28;20278;-84
2021/07/01 01:04:46;;;;;;;2.50;2.40;;;;;;;;;;5094084;28;20237;-83
2021/07/01 01:07:12;;;;;;;2.97;2.53;;;;;;;;;;5093731;28;20213;-84
2021/07/01 01:09:39;;;;;;;3.43;2.73;;;;;;;;;;5093905;28;20173;-85
2021/07/01 01:12:06;;;;;;;4.23;3.00;;;;;;;;;;5092569;28;20201;-84
2021/07/01 01:14:33;;;;;;;2.60;2.50;;;;;;;;;;5092482;28;20255;-84
2021/07/01 01:17:00;;;;;;;2.70;2.50;;;;;;;;;;5093752;28;20599;-84
2021/07/01 01:19:28;;;;;;;2.77;2.57;;;;;;;;;;5093739;28;20677;-84
2021/07/01 01:21:56;;;;;;;3.10;2.80;;;;;;;;;;5092374;28;20205;-84
2021/07/01 01:24:23;;;;;;;2.77;2.67;;;;;;;;;;5092492;28;20194;-84
2021/07/01 01:26:49;;;;;;;2.90;2.70;;;;;;;;;;5091985;28;20217;-83
2021/07/01 01:29:16;;;;;;;4.67;2.70;;;;;;;;;;5092448;28;20201;-83
2021/07/01 01:31:43;;;;;;;2.93;2.63;;;;;;;;;;5093704;28;20206;-85
2021/07/01 01:34:09;;;;;;;2.70;2.50;;;;;;;;;;5092202;28;20253;-84
2021/07/01 01:36:36;;;;;;;2.90;2.63;;;;;;;;;;5092194;28;20286;-84
2021/07/01 01:39:04;;;;;;;3.23;2.90;;;;;;;;;;5093576;28;20174;-84
2021/07/01 01:41:31;;;;;;;3.30;3.00;;;;;;;;;;5093403;28;20642;-85
2021/07/01 01:43:57;;;;;;;3.13;2.70;;;;;;;;;;5092431;28;20201;-84
2021/07/01 01:46:24;;;;;;;5.23;3.10;;;;;;;;;;5092247;28;20672;-84
2021/07/01 01:48:52;;;;;;;2.97;2.77;;;;;;;;;;5091978;28;20205;-84
2021/07/01 01:51:18;;;;;;;5.27;3.10;;;;;;;;;;5093435;28;20206;-84
2021/07/01 01:53:45;;;;;;;4.57;3.20;;;;;;;;;;5093680;28;20193;-84
2021/07/01 01:56:13;;;;;;;3.67;3.40;;;;;;;;;;5091914;28;20253;-84
2021/07/01 01:58:40;;;;;;;3.33;3.10;;;;;;;;;;5091633;28;20606;-84
2021/07/01 02:01:06;;;;;;;3.67;3.37;;;;;;;;;;5091943;28;20606;-83
2021/07/01 02:03:33;;;;;;;3.87;3.43;;;;;;;;;;5091549;28;20701;-84
2021/07/01 02:06:00;;;;;;;6.50;3.90;;;;;;;;;;5092006;28;20725;-84
2021/07/01 02:08:26;;;;;;;3.37;3.23;;;;;;;;;;5091923;28;20205;-84
2021/07/01 02:10:53;;;;;;;4.50;3.37;;;;;;;;;;5091880;28;20202;-84
2021/07/01 02:13:21;;;;;;;4.93;3.73;;;;;;;;;;5092957;28;20178;-84
2021/07/01 02:15:48;;;;;;;3.40;3.17;;;;;;;;;;5092093;28;20219;-84
2021/07/01 02:18:14;;;;;;;6.80;3.20;;;;;;;;;;5091810;28;20233;-84
2021/07/01 02:20:41;;;;;;;3.00;2.80;;;;;;;;;;5091893;28;20272;-84
2021/07/01 02:23:08;;;;;;;3.73;3.03;;;;;;;;;;5092723;28;20217;-84
2021/07/01 02:25:35;;;;;;;5.40;3.40;;;;;;;;;;5092567;28;20232;-84
2021/07/01 02:28:02;;;;;;;3.93;3.00;;;;;;;;;;5094165;28;20239;-84
2021/07/01 02:30:30;;;;;;;4.70;3.07;;;;;;;;;;5096529;28;20186;-84
2021/07/01 02:32:56;;;;;;;4.13;3.33;;;;;;;;;;5096568;28;20670;-84
2021/07/01 02:35:23;;;;;;;8.30;3.67;;;;;;;;;;5094824;28;20596;-84
2021/07/01 02:37:50;;;;;;;5.33;2.93;;;;;;;;;;5095091;28;20240;-84
2021/07/01 02:40:16;;;;;;;3.23;3.03;;;;;;;;;;5094470;28;20560;-84
2021/07/01 02:42:43;;;;;;;4.07;3.77;;;;;;;;;;5096465;28;20212;-84
2021/07/01 02:45:11;;;;;;;4.20;3.90;;;;;;;;;;5095204;28;20224;-84
2021/07/01 02:47:39;;;;;;;5.00;4.03;;;;;;;;;;5094939;28;20194;-84
2021/07/01 02:50:08;;;;;;;4.70;3.97;;;;;;;;;;5094907;28;20654;-84
2021/07/01 02:52:34;;;;;;;4.63;4.10;;;;;;;;;;5096234;28;20241;-84
2021/07/01 02:55:01;;;;;;;4.30;3.90;;;;;;;;;;5095904;28;20217;-84
2021/07/01 02:57:28;;;;;;;4.87;4.40;;;;;;;;;;5094791;28;20242;-84
2021/07/01 02:59:54;;;;;;;4.30;3.90;;;;;;;;;;5094690;28;20202;-85
2021/07/01 03:02:22;;;;;;;5.23;4.03;;;;;;;;;;5094118;28;20233;-84
2021/07/01 03:04:50;;;;;;;4.47;4.00;;;;;;;;;;5094835;28;20190;-84
2021/07/01 03:07:16;;;;;;;6.77;4.50;;;;;;;;;;5094531;28;20198;-84
2021/07/01 03:09:43;;;;;;;4.60;4.03;;;;;;;;;;5094240;28;20198;-84
2021/07/01 03:12:10;;;;;;;4.70;4.37;;;;;;;;;;5095519;28;20213;-84
2021/07/01 03:14:36;;;;;;;4.23;3.83;;;;;;;;;;5093762;28;20266;-84
2021/07/01 03:17:03;;;;;;;4.70;4.17;;;;;;;;;;5094432;28;20303;-84
2021/07/01 03:19:30;;;;;;;4.73;4.23;;;;;;;;;;5095416;28;20197;-84
2021/07/01 03:21:58;;;;;;;5.50;4.17;;;;;;;;;;5093678;28;20670;-84
2021/07/01 03:24:25;;;;;;;4.60;4.20;;;;;;;;;;5095435;28;20244;-84
2021/07/01 03:26:51;;;;;;;4.73;4.13;;;;;;;;;;5094052;28;20259;-84
2021/07/01 03:29:18;;;;;;;4.90;4.37;;;;;;;;;;5093679;28;20326;-84
2021/07/01 03:31:44;;;;;;;4.00;3.70;;;;;;;;;;5093898;28;20206;-84
2021/07/01 03:34:11;;;;;;;4.07;3.77;;;;;;;;;;5093895;28;20219;-84
2021/07/01 03:36:38;;;;;;;6.27;4.33;;;;;;;;;;5094032;28;20198;-84
2021/07/01 03:39:06;;;;;;;4.37;4.00;;;;;;;;;;5095347;28;20237;-84
2021/07/01 03:41:33;;;;;;;5.10;4.70;;;;;;;;;;5093388;28;20201;-84
2021/07/01 03:43:59;;;;;;;5.20;4.60;;;;;;;;;;5095192;28;20178;-84
2021/07/01 03:46:26;;;;;;;5.03;4.50;;;;;;;;;;5093789;28;20638;-83
2021/07/01 03:48:53;;;;;;;5.03;4.70;;;;;;;;;;5094033;28;20178;-84
2021/07/01 03:51:19;;;;;;;5.53;4.80;;;;;;;;;;5093572;28;20557;-84
2021/07/01 03:53:46;;;;;;;5.30;4.90;;;;;;;;;;5093836;28;20263;-83
2021/07/01 03:56:14;;;;;;;4.53;4.27;;;;;;;;;;5093267;28;20642;-82
2021/07/01 03:58:41;;;;;;;5.13;4.63;;;;;;;;;;5093294;28;20245;-83
2021/07/01 04:01:08;;;;;;;5.67;5.07;;;;;;;;;;5093533;28;20585;-83
2021/07/01 04:03:34;;;;;;;9.40;5.60;;;;;;;;;;5094251;28;20233;-83
2021/07/01 04:06:02;;;;;;;5.40;5.00;;;;;;;;;;5092775;28;20251;-82
2021/07/01 04:08:28;;;;;;;5.20;4.77;;;;;;;;;;5092986;28;20202;-83
2021/07/01 04:10:55;;;;;;;5.60;4.60;;;;;;;;;;5094055;28;20237;-83
2021/07/01 04:13:23;;;;;;;4.50;4.20;;;;;;;;;;5093223;28;20197;-83
2021/07/01 04:15:50;;;;;;;4.40;4.10;;;;;;;;;;5092753;28;20233;-83
2021/07/01 04:18:17;;;;;;;4.27;3.97;;;;;;;;;;5093064;28;20214;-83
2021/07/01 04:20:44;;;;;;;5.40;3.70;;;;;;;;;;5093007;28;20243;-85
2021/07/01 04:23:11;;;;;;;4.13;3.93;;;;;;;;;;5093893;28;20210;-83
2021/07/01 04:25:37;;;;;;;4.40;4.10;;;;;;;;;;5094453;28;20772;-83
2021/07/01 04:28:04;;;;;;;4.10;3.70;;;;;;;;;;5094180;28;20207;-83
2021/07/01 04:30:32;;;;;;;4.10;3.70;;;;;;;;;;5092781;28;20201;-84
2021/07/01 04:32:59;;;;;;;4.30;3.97;;;;;;;;;;5092735;28;20201;-83
2021/07/01 04:35:25;;;;;;;3.97;3.70;;;;;;;;;;5092607;28;20209;-82
2021/07/01 04:37:52;;;;;;;5.20;3.87;;;;;;;;;;5093877;28;20755;-83
2021/07/01 04:40:19;;;;;;;4.07;3.77;;;;;;;;;;5093952;28;20205;-81
2021/07/01 04:42:45;;;;;;;4.30;3.90;;;;;;;;;;5092607;28;20198;-82
2021/07/01 04:45:12;;;;;;;3.70;3.50;;;;;;;;;;5094178;28;20174;-84
2021/07/01 04:47:40;;;;;;;4.33;3.93;;;;;;;;;;5093913;28;20213;-83
2021/07/01 04:50:08;;;;;;;3.77;3.57;;;;;;;;;;5091097;28;20669;-83
2021/07/01 04:52:34;;;;;;;5.47;3.80;;;;;;;;;;5092485;28;20216;-81
2021/07/01 04:55:01;;;;;;;5.33;3.77;;;;;;;;;;5093579;28;20240;-81
2021/07/01 04:57:28;;;;;;;3.83;3.57;;;;;;;;;;5093472;28;20226;-84
2021/07/01 04:59:55;;;;;;;3.80;3.50;;;;;;;;;;5092297;28;20201;-84
2021/07/01 05:02:21;;;;;;;4.27;3.53;;;;;;;;;;5093211;28;20256;-83
2021/07/01 05:04:49;;;;;;;3.60;3.27;;;;;;;;;;5092295;28;20223;-82
2021/07/01 05:07:16;;;;;;;3.20;3.00;;;;;;;;;;5091943;28;20194;-83
2021/07/01 05:09:43;;;;;;;3.50;3.30;;;;;;;;;;5092356;28;20601;-82
2021/07/01 05:12:10;;;;;;;3.63;3.43;;;;;;;;;;5093326;28;20209;-82
2021/07/01 05:14:36;;;;;;;3.90;3.60;;;;;;;;;;5092041;28;20194;-81
2021/07/01 05:17:03;;;;;;;3.73;3.53;;;;;;;;;;5091589;28;20561;-83
2021/07/01 05:19:30;;;;;;;4.27;3.40;;;;;;;;;;5091923;28;20241;-84
2021/07/01 05:21:58;;;;;;;3.70;3.50;;;;;;;;;;5092151;28;20642;-83
2021/07/01 05:24:24;;;;;;;3.77;3.47;;;;;;;;;;5091799;28;20202;-83
2021/07/01 05:26:51;;;;;;;3.80;3.40;;;;;;;;;;5091791;28;20230;-81
2021/07/01 05:29:18;;;;;;;5.20;3.37;;;;;;;;;;5091848;28;20236;-83
2021/07/01 05:31:45;;;;;;;3.07;2.97;;;;;;;;;;5092062;28;20194;-82
2021/07/01 05:34:12;;;;;;;11.10;3.73;;;;;;;;;;5092836;28;20216;-83
2021/07/01 05:36:38;;;;;;;3.37;3.10;;;;;;;;;;5091969;28;20232;-82
2021/07/01 05:39:07;;;;;;;3.10;2.93;;;;;;;;;;5092328;28;20240;-83
2021/07/01 05:41:33;;;;;;;3.00;2.80;;;;;;;;;;5091747;28;20571;-82
2021/07/01 05:44:03;;;;;;;3.23;3.00;;;;;;;;;;5091998;28;20202;-83
2021/07/01 05:46:30;;;;;;;3.23;2.83;;;;;;;;;;5091747;28;20561;-82
2021/07/01 05:48:56;;;;;;;3.87;2.73;;;;;;;;;;5092937;28;20210;-82
2021/07/01 05:51:24;;;;;;;2.90;2.70;;;;;;;;;;5091509;28;20229;-81
2021/07/01 05:53:57;;;;;;;3.77;2.90;;;;;;;;;;5091658;28;20201;-82
2021/07/01 05:56:26;;;;;;;2.40;2.20;;;;;;;;;;5091904;28;20650;-83
2021/07/01 05:58:53;;;;;;;3.43;2.70;;;;;;;;;;5092890;28;20264;-82
2021/07/01 06:01:19;;;;;;;5.53;2.53;;;;;;;;;;5091096;28;20206;-82
2021/07/01 06:03:46;;;;;;;2.43;2.30;;;;;;;;;;5094901;28;20237;-82
2021/07/01 06:06:13;;;;;;;2.37;2.17;;;;;;;;;;5095119;28;20193;-82
2021/07/01 06:08:40;;;;;;;2.90;2.27;;;;;;;;;;5094829;28;20198;-81
2021/07/01 06:11:07;;;;;;;2.40;2.30;;;;;;;;;;5096437;28;20217;-82
2021/07/01 06:13:37;;;;;;;2.70;2.50;;;;;;;;;;5094811;28;20217;-81
2021/07/01 06:16:04;;;;;;;2.80;2.60;;;;;;;;;;5095150;28;20545;-81
2021/07/01 06:18:31;;;;;;;2.20;2.10;;;;;;;;;;5096201;28;20686;-81
2021/07/01 06:20:58;;;;;;;2.47;2.37;;;;;;;;;;5095507;28;20671;-82
2021/07/01 06:23:25;;;;;;;2.80;2.60;;;;;;;;;;5094998;28;20240;-82
2021/07/01 06:25:54;;;;;;;3.07;2.23;;;;;;;;;;5095834;28;20589;-81
2021/07/01 06:28:21;;;;;;;2.73;2.00;;;;;;;;;;5095042;28;20224;-82
2021/07/01 06:30:49;;;;;;;2.40;2.20;;;;;;;;;;5096179;28;20185;-82
2021/07/01 06:33:18;;;;;;;2.47;2.37;;;;;;;;;;5094758;28;20587;-81
2021/07/01 06:35:48;;;;;;;3.13;2.30;;;;;;;;;;5096192;28;20675;-81
2021/07/01 06:38:15;;;;;;;2.43;2.33;;;;;;;;;;5094369;28;20746;-82
2021/07/01 06:40:44;;;;;;;2.40;2.30;;;;;;;;;;5093804;28;20228;-82
2021/07/01 06:43:13;;;;;;;5.23;2.40;;;;;;;;;;5095917;28;20245;-82
2021/07/01 06:45:40;;;;;;;2.80;2.57;;;;;;;;;;5096157;28;20207;-82
2021/07/01 06:48:09;;;;;;;2.87;2.73;;;;;;;;;;5095740;28;20205;-82
2021/07/01 06:50:35;;;;;;;3.10;2.90;;;;;;;;;;5094003;28;20658;-82
2021/07/01 06:53:02;;;;;;;4.43;2.80;;;;;;;;;;5094368;28;20206;-82
2021/07/01 06:55:29;;;;;;;2.63;2.53;;;;;;;;;;5094170;28;20210;-81
2021/07/01 06:57:56;;;;;;;3.93;2.60;;;;;;;;;;5094252;28;20240;-82
2021/07/01 07:00:23;;;;;;;2.77;2.67;;;;;;;;;;5095547;28;20229;-82
2021/07/01 07:02:51;;;;;;;2.50;2.30;;;;;;;;;;5093853;28;20253;-82
2021/07/01 07:05:20;;;;;;;2.40;2.30;;;;;;;;;;5094192;28;20206;-82
2021/07/01 07:07:48;;;;;;;7.80;2.70;;;;;;;;;;5093590;28;20232;-81
2021/07/01 07:10:15;;;;;;;2.53;2.43;;;;;;;;;;5093760;28;20193;-81
2021/07/01 07:12:43;;;;;;;2.17;2.07;;;;;;;;;;5093709;28;20561;-81
2021/07/01 07:15:11;;;;;;;2.80;2.33;;;;;;;;;;5094108;28;20201;-81
2021/07/01 07:17:39;;;;;;;2.40;2.30;;;;;;;;;;5094025;28;20251;-81
2021/07/01 07:20:06;;;;;;;4.20;2.63;;;;;;;;;;5093915;28;20242;-81
2021/07/01 07:22:35;;;;;;;3.53;2.67;;;;;;;;;;5093770;28;20267;-82
2021/07/01 07:25:04;;;;;;;2.87;2.53;;;;;;;;;;5095134;28;20209;-81
2021/07/01 07:27:31;;;;;;;2.37;2.17;;;;;;;;;;5093552;28;20232;-82
2021/07/01 07:29:58;;;;;;;2.40;2.30;;;;;;;;;;5093897;28;20194;-81
2021/07/01 07:32:26;;;;;;;2.23;2.13;;;;;;;;;;5093802;28;20202;-82
2021/07/01 07:34:52;;;;;;;1.90;1.80;;;;;;;;;;5093389;28;20669;-82
2021/07/01 07:37:20;;;;;;;2.03;1.93;;;;;;;;;;5093367;28;20602;-81
2021/07/01 07:39:48;;;;;;;1.83;1.77;;;;;;;;;;5093466;28;20214;-82
2021/07/01 07:42:15;;;;;;;1.80;1.70;;;;;;;;;;5093513;28;20202;-82
2021/07/01 07:44:43;;;;;;;2.07;1.60;;;;;;;;;;5094855;28;20217;-82
2021/07/01 07:47:10;;;;;;;1.47;1.47;;;;;;;;;;5093173;28;20255;-82
2021/07/01 07:49:37;;;;;;;1.73;1.60;;;;;;;;;;5094679;28;20182;-82
2021/07/01 07:52:04;;;;;;;1.53;1.50;;;;;;;;;;5094504;28;20252;-81
2021/07/01 07:54:33;;;;;;;1.87;1.77;;;;;;;;;;5093120;28;20730;-82
2021/07/01 07:57:01;;;;;;;3.10;1.60;;;;;;;;;;5092838;28;20209;-82
2021/07/01 07:59:29;;;;;;;2.00;1.60;;;;;;;;;;5092565;28;20213;-82
2021/07/01 08:01:58;;;;;;;1.70;1.63;;;;;;;;;;5092221;28;20231;-81
2021/07/01 08:04:26;;;;;;;1.90;1.80;;;;;;;;;;5092878;28;20201;-81
2021/07/01 08:06:54;;;;;;;1.93;1.43;;;;;;;;;;5094526;28;20206;-82
2021/07/01 08:09:22;;;;;;;1.90;1.80;;;;;;;;;;5094001;28;20210;-81
2021/07/01 08:11:49;;;;;;;2.50;2.30;;;;;;;;;;5092605;28;20198;-81
2021/07/01 08:14:17;;;;;;;2.30;2.20;;;;;;;;;;5092938;28;20208;-81
2021/07/01 08:16:45;;;;;;;3.80;2.50;;;;;;;;;;5094137;28;20244;-82
2021/07/01 08:19:12;;;;;;;1.90;1.90;;;;;;;;;;5092774;28;20237;-81
2021/07/01 08:21:38;;;;;;;1.97;1.87;;;;;;;;;;5092876;28;20560;-82
2021/07/01 08:24:06;;;;;;;2.13;2.03;;;;;;;;;;5092017;28;20205;-81
2021/07/01 08:26:33;;;;;;;1.77;1.77;;;;;;;;;;5092594;28;20226;-81
2021/07/01 08:29:00;;;;;;;1.90;1.80;;;;;;;;;;5092545;28;20194;-81
2021/07/01 08:31:28;;;;;;;1.73;1.63;;;;;;;;;;5093840;28;20244;-80
2021/07/01 08:33:56;;;;;;;1.80;1.70;;;;;;;;;;5093634;28;20210;-82
2021/07/01 08:36:24;;;;;;;1.57;1.50;;;;;;;;;;5092310;28;20227;-81
2021/07/01 08:38:51;;;;;;;3.33;1.93;;;;;;;;;;5092362;28;20701;-82
2021/07/01 08:41:19;;;;;;;1.87;1.80;;;;;;;;;;5092453;28;20193;-82
2021/07/01 08:43:51;;;;;;;1.83;1.70;;;;;;;;;;5092259;28;20205;-82
2021/07/01 08:46:22;;;;;;;2.13;1.90;;;;;;;;;;5093606;28;20248;-81
2021/07/01 08:48:59;;;;;;;2.70;1.63;;;;;;;;;;5093557;28;20237;-81
2021/07/01 08:51:30;;;;;;;2.10;2.00;;;;;;;;;;5091675;28;20197;-80
2021/07/01 08:54:12;;;;;;;1.70;1.60;;;;;;;;;;5092152;28;20197;-81
2021/07/01 08:56:40;;;;;;;2.70;2.10;;;;;;;;;;5093673;28;20204;-81
2021/07/01 08:59:07;;;;;;;2.43;2.00;;;;;;;;;;5091874;28;20201;-82
2021/07/01 09:01:36;;;;;;;2.20;2.10;;;;;;;;;;5091472;28;20198;-82
2021/07/01 09:04:04;;;;;;;2.63;1.80;;;;;;;;;;5093311;28;20886;-82
2021/07/01 09:06:36;;;;;;;3.37;1.80;;;;;;;;;;5093142;28;20216;-82
2021/07/01 09:09:04;;;;;;;2.40;2.00;;;;;;;;;;5093709;28;20666;-81
2021/07/01 09:11:34;;;;;;;1.97;1.63;;;;;;;;;;5091862;28;20656;-81
2021/07/01 09:14:03;;;;;;;2.03;1.87;;;;;;;;;;5092008;28;20189;-81
2021/07/01 09:16:31;;;;;;;2.70;1.90;;;;;;;;;;5093218;28;20209;-81
2021/07/01 09:18:59;;;;;;;2.47;1.70;;;;;;;;;;5091744;28;20205;-81
2021/07/01 09:21:27;;;;;;;3.03;1.67;;;;;;;;;;5093111;28;20264;-81
2021/07/01 09:23:54;;;;;;;1.63;1.40;;;;;;;;;;5093184;28;20214;-81
2021/07/01 09:26:21;;;;;;;1.50;1.40;;;;;;;;;;5091602;28;20225;-82
2021/07/01 09:28:48;;;;;;;1.67;1.67;;;;;;;;;;5091929;28;20568;-82
2021/07/01 09:31:16;;;;;;;2.43;1.73;;;;;;;;;;5091905;28;20197;-83
2021/07/01 09:33:43;;;;;;;1.90;1.80;;;;;;;;;;5091674;28;20198;-82
2021/07/01 09:36:10;;;;;;;1.40;1.40;;;;;;;;;;5094473;28;20209;-82
2021/07/01 09:38:39;;;;;;;1.30;1.30;;;;;;;;;;5096408;28;20661;-82
2021/07/01 09:41:06;;;;;;;1.27;1.27;;;;;;;;;;5097276;28;20608;-83
2021/07/01 09:43:32;;;;;;;1.17;1.17;;;;;;;;;;5097138;28;20235;-83
2021/07/01 09:46:00;;;;;;;0.90;0.90;;;;;;;;;;5097282;28;20248;-82
2021/07/01 09:48:31;;;;;;;1.17;1.17;;;;;;;;;;5097209;28;20178;-82
2021/07/01 09:51:02;;;;;;;1.13;1.13;;;;;;;;;;5095492;28;20646;-82
2021/07/01 09:53:30;;;;;;;1.30;1.10;;;;;;;;;;5095374;28;20259;-82
2021/07/01 09:56:02;;;;;;;1.23;1.23;;;;;;;;;;5095446;28;20221;-82
2021/07/01 09:58:30;;;;;;;1.20;1.20;;;;;;;;;;5096948;28;20217;-82
2021/07/01 10:00:58;;;;;;;1.80;1.00;;;;;;;;;;5095111;28;20681;-82
2021/07/01 10:03:24;;;;;;;0.97;0.97;;;;;;;;;;5095102;28;20225;-82
2021/07/01 10:05:51;;;;;;;0.70;0.70;;;;;;;;;;5096739;28;20210;-81
2021/07/01 10:08:18;;;;;;;1.00;1.00;;;;;;;;;;5094868;28;20227;-80
2021/07/01 10:10:45;;;;;;;1.07;0.90;;;;;;;;;;5094938;28;20259;-81
2021/07/01 10:13:13;;;;;;;0.70;0.70;;;;;;;;;;5095162;28;20219;-81
2021/07/01 10:15:41;;;;;;;0.60;0.60;;;;;;;;;;5096463;28;20209;-81
2021/07/01 10:18:09;;;;;;;0.60;0.60;;;;;;;;;;5095140;28;20206;-80
2021/07/01 10:20:37;;;;;;;0.80;0.80;;;;;;;;;;5094923;28;20241;-81
2021/07/01 10:23:04;;;;;;;0.70;0.70;;;;;;;;;;5095010;28;20665;-81
2021/07/01 10:25:32;;;;;;;0.60;0.60;;;;;;;;;;5095093;28;20189;-80
2021/07/01 10:28:09;;;;;;;0.60;0.60;;;;;;;;;;5096408;28;20205;-81
2021/07/01 10:30:37;;;;;;;0.60;0.60;;;;;;;;;;5094456;28;20197;-81
2021/07/01 10:33:04;;;;;;;0.63;0.63;;;;;;;;;;5095108;28;20225;-81
2021/07/01 10:35:32;;;;;;;0.70;0.70;;;;;;;;;;5094895;28;20240;-81
2021/07/01 10:38:06;;;;;;;1.07;1.00;;;;;;;;;;5096221;28;20677;-81
2021/07/01 10:40:34;;;;;;;0.67;0.67;;;;;;;;;;5094542;28;20217;-81
2021/07/01 10:43:01;;;;;;;0.93;0.90;;;;;;;;;;5094372;28;20202;-81
2021/07/01 10:45:28;;;;;;;1.90;0.70;;;;;;;;;;5094653;28;20190;-81
2021/07/01 10:48:12;;;;;;;0.50;0.50;;;;;;;;;;5093649;28;20202;-81
2021/07/01 10:50:39;;;;;;;0.60;0.60;;;;;;;;;;5094633;28;20646;-81
2021/07/01 10:53:25;;;;;;;1.17;0.53;;;;;;;;;;5094506;28;20198;-81
2021/07/01 10:55:51;;;;;;;2.17;0.50;;;;;;;;;;5094491;28;20900;-81
2021/07/01 10:58:18;;;;;;;0.60;0.60;;;;;;;;;;5095460;28;20202;-80
2021/07/01 11:00:45;;;;;;;0.57;0.57;;;;;;;;;;5093665;28;20248;-80
2021/07/01 11:03:19;;;;;;;0.50;0.50;;;;;;;;;;5094233;28;20613;-81
2021/07/01 11:05:46;;;;;;;0.60;0.60;;;;;;;;;;5095604;28;20536;-81
2021/07/01 11:08:22;;;;;;;0.70;0.70;;;;;;;;;;5094110;28;20202;-81
2021/07/01 11:10:50;;;;;;;0.40;0.40;;;;;;;;;;5095482;28;20201;-80
2021/07/01 11:13:16;;;;;;;0.50;0.50;;;;;;;;;;5094159;28;20202;-81
2021/07/01 11:15:58;;;;;;;0.60;0.60;;;;;;;;;;5095450;28;20651;-80
2021/07/01 11:18:34;;;;;;;0.87;0.80;;;;;;;;;;5094651;28;20277;-80
2021/07/01 11:21:05;;;;;;;0.80;0.80;;;;;;;;;;5095276;28;20217;-83
2021/07/01 11:23:32;;;;;;;1.03;1.03;;;;;;;;;;5094040;28;20217;-83
2021/07/01 11:25:59;;;;;;;1.40;1.30;;;;;;;;;;5093842;28;20616;-83
2021/07/01 11:28:29;;;;;;;1.20;1.20;;;;;;;;;;5093762;28;20198;-82
2021/07/01 11:30:59;;;;;;;1.23;1.23;;;;;;;;;;5093894;28;20549;-81
2021/07/01 11:33:25;;;;;;;1.60;1.50;;;;;;;;;;5093795;28;20201;-81
2021/07/01 11:36:08;;;;;;;1.93;1.40;;;;;;;;;;5093619;28;20229;-81
2021/07/01 11:38:35;;;;;;;1.47;1.47;;;;;;;;;;5095039;28;20210;-80
2021/07/01 11:41:04;;;;;;;1.73;1.40;;;;;;;;;;5094741;28;20661;-81
2021/07/01 11:43:31;;;;;;;1.57;1.50;;;;;;;;;;5093632;28;20542;-83
2021/07/01 11:45:58;;;;;;;2.87;1.70;;;;;;;;;;5094346;28;20217;-82
2021/07/01 11:48:25;;;;;;;1.83;1.73;;;;;;;;;;5093143;28;20557;-82
2021/07/01 11:50:55;;;;;;;2.57;1.50;;;;;;;;;;5094411;28;20209;-83
2021/07/01 11:53:22;;;;;;;2.70;1.70;;;;;;;;;;5093208;28;20201;-82
2021/07/01 11:55:51;;;;;;;1.63;1.63;;;;;;;;;;5093286;28;20198;-82
2021/07/01 11:58:18;;;;;;;2.70;1.80;;;;;;;;;;5094620;28;20209;-82
2021/07/01 12:00:45;;;;;;;1.90;1.80;;;;;;;;;;5094479;28;20237;-82
2021/07/01 12:03:12;;;;;;;1.90;1.80;;;;;;;;;;5092832;28;20260;-82
2021/07/01 12:05:41;;;;;;;1.80;1.70;;;;;;;;;;5092938;28;20202;-82
2021/07/01 12:08:10;;;;;;;1.67;1.67;;;;;;;;;;5093076;28;20186;-81
2021/07/01 12:10:37;;;;;;;2.10;2.00;;;;;;;;;;5093033;28;20186;-82
2021/07/01 12:13:04;;;;;;;1.87;1.77;;;;;;;;;;5092741;28;20731;-83
2021/07/01 12:15:30;;;;;;;1.80;1.77;;;;;;;;;;5092736;28;20198;-83
2021/07/01 12:17:58;;;;;;;1.97;1.87;;;;;;;;;;5094297;28;20569;-81
2021/07/01 12:20:29;;;;;;;3.80;2.10;;;;;;;;;;5094136;28;20209;-83
2021/07/01 12:22:56;;;;;;;2.30;2.10;;;;;;;;;;5092815;28;20227;-82
2021/07/01 12:25:43;;;;;;;3.30;2.00;;;;;;;;;;5092631;28;20201;-82
2021/07/01 12:28:11;;;;;;;2.20;2.10;;;;;;;;;;5092754;28;20674;-81
2021/07/01 12:31:05;;;;;;;2.13;2.00;;;;;;;;;;5092191;28;20201;-81
2021/07/01 12:33:36;;;;;;;2.40;2.30;;;;;;;;;;5092421;28;20206;-81
2021/07/01 12:36:07;;;;;;;2.53;2.33;;;;;;;;;;5092466;28;20735;-82
2021/07/01 12:38:34;;;;;;;2.30;2.20;;;;;;;;;;5092430;28;20206;-82
2021/07/01 12:41:03;;;;;;;2.53;2.20;;;;;;;;;;5093792;28;20249;-82
2021/07/01 12:44:00;;;;;;;1.60;1.60;;;;;;;;;;5092409;28;20190;-82
2021/07/01 12:46:45;;;;;;;2.10;1.90;;;;;;;;;;5014355;28;20203;-83
2021/07/01 12:49:29;;;;;;;2.10;2.00;;;;;;;;;;5083415;28;20201;-83
2021/07/01 12:51:57;;;;;;;1.90;1.80;;;;;;;;;;5091054;28;20197;-81
2021/07/01 12:54:39;;;;;;;2.33;2.23;;;;;;;;;;5092422;28;20247;-81
2021/07/01 12:57:08;;;;;;;2.40;2.20;;;;;;;;;;5092706;28;20209;-83
2021/07/01 12:59:35;;;;;;;3.53;2.30;;;;;;;;;;5093596;28;20178;-83
2021/07/01 13:02:03;;;;;;;2.40;2.30;;;;;;;;;;5093156;28;20253;-83
2021/07/01 13:04:30;;;;;;;2.07;2.00;;;;;;;;;;5092186;28;20197;-82
2021/07/01 13:06:58;;;;;;;1.70;1.60;;;;;;;;;;5093644;28;20536;-84
2021/07/01 13:09:27;;;;;;;1.97;1.87;;;;;;;;;;5092643;28;20746;-83
2021/07/01 13:11:54;;;;;;;2.03;1.90;;;;;;;;;;5091629;28;20206;-83
2021/07/01 13:14:24;;;;;;;2.20;2.10;;;;;;;;;;5092042;28;20201;-82
2021/07/01 13:16:59;;;;;;;1.90;1.90;;;;;;;;;;5091715;28;20202;-83
2021/07/01 13:19:26;;;;;;;2.40;2.30;;;;;;;;;;5093365;28;20217;-83
2021/07/01 13:21:54;;;;;;;2.23;2.13;;;;;;;;;;5091417;28;20618;-82
2021/07/01 13:24:21;;;;;;;2.83;2.23;;;;;;;;;;5092038;28;20223;-83
2021/07/01 13:26:47;;;;;;;2.00;1.90;;;;;;;;;;5091497;28;20225;-82
2021/07/01 13:29:29;;;;;;;2.03;1.93;;;;;;;;;;5092071;28;20195;-83
2021/07/01 13:32:01;;;;;;;2.40;2.20;;;;;;;;;;5090835;28;20201;-81
2021/07/01 13:34:28;;;;;;;2.53;2.33;;;;;;;;;;5092676;28;20212;-83
2021/07/01 13:36:55;;;;;;;2.77;2.57;;;;;;;;;;5092922;28;20212;-82
2021/07/01 13:39:28;;;;;;;3.23;2.40;;;;;;;;;;5093178;28;20210;-83
2021/07/01 13:41:55;;;;;;;2.77;2.40;;;;;;;;;;5091325;28;20210;-83
2021/07/01 13:44:21;;;;;;;2.67;2.57;;;;;;;;;;5091961;28;20198;-83
2021/07/01 13:46:48;;;;;;;3.23;3.00;;;;;;;;;;5093009;28;20220;-86
2021/07/01 13:49:17;;;;;;;3.07;2.83;;;;;;;;;;5093149;28;20179;-83
2021/07/01 13:51:43;;;;;;;3.53;3.33;;;;;;;;;;5091451;28;20252;-82
2021/07/01 13:54:13;;;;;;;3.30;3.10;;;;;;;;;;5092975;28;20211;-82
2021/07/01 13:56:41;;;;;;;3.13;3.03;;;;;;;;;;5092874;28;20201;-82
2021/07/01 13:59:08;;;;;;;3.33;3.13;;;;;;;;;;5092540;28;20248;-82
2021/07/01 14:01:35;;;;;;;3.77;3.40;;;;;;;;;;5092549;28;20253;-82
2021/07/01 14:04:02;;;;;;;3.30;3.10;;;;;;;;;;5091128;28;20275;-82
2021/07/01 14:06:33;;;;;;;3.40;3.13;;;;;;;;;;5092853;28;20209;-82
2021/07/01 14:09:00;;;;;;;3.43;3.03;;;;;;;;;;5091597;28;20198;-82
2021/07/01 14:11:28;;;;;;;3.13;2.93;;;;;;;;;;5092698;28;20212;-82
2021/07/01 14:13:58;;;;;;;3.27;3.03;;;;;;;;;;5093179;28;20727;-82
2021/07/01 14:16:28;;;;;;;3.10;2.87;;;;;;;;;;5091521;28;20190;-82
2021/07/01 14:18:55;;;;;;;3.13;2.83;;;;;;;;;;5072304;28;20238;-82
2021/07/01 14:21:35;;;;;;;3.30;3.10;;;;;;;;;;5072155;28;20187;-82
2021/07/01 14:24:09;;;;;;;3.10;2.90;;;;;;;;;;5074518;28;20211;-81
2021/07/01 14:26:42;;;;;;;3.17;2.97;;;;;;;;;;5075781;28;20242;-82
2021/07/01 14:29:09;;;;;;;3.47;2.90;;;;;;;;;;5075930;28;20179;-81
2021/07/01 14:31:37;;;;;;;4.10;2.83;;;;;;;;;;5080084;28;20245;-81
2021/07/01 14:34:03;;;;;;;3.17;2.87;;;;;;;;;;5074468;28;20550;-81
2021/07/01 14:36:31;;;;;;;3.83;3.53;;;;;;;;;;5075799;28;20674;-81
2021/07/01 14:39:03;;;;;;;3.30;3.07;;;;;;;;;;5074431;28;20202;-81
2021/07/01 14:41:32;;;;;;;2.80;2.60;;;;;;;;;;5075482;28;20186;-81
2021/07/01 14:44:01;;;;;;;4.20;3.00;;;;;;;;;;5074277;28;20203;-81
2021/07/01 14:46:30;;;;;;;3.10;2.90;;;;;;;;;;5074311;28;20191;-81
2021/07/01 14:48:57;;;;;;;3.10;2.73;;;;;;;;;;5075828;28;20179;-81